Time;durP1;ratioP1;P1;durP2;ratioP2;P2;SDS_P1;SDS_P2;PMS_P1;PMS_P2;Temp;Humidity;BMP_temperature;BMP_pressure;BME280_temperature;BME280_humidity;BME280_pressure;Samples;Min_cycle;Max_cycle;Signal;HPM_P1;HPM_P2
2021/11/01 00:00:59;;;;;;;7.80;2.60;;;11.20;99.90;;;;;;5040971;28;20954;-89
2021/11/01 00:03:25;;;;;;;8.00;3.03;;;;;;;;;;5042031;28;20474;-88
2021/11/01 00:05:51;;;;;;;7.60;3.47;;;11.50;99.90;;;;;;5038914;28;20422;-89
2021/11/01 00:08:49;;;;;;;11.83;4.33;;;11.20;99.90;;;;;;5032073;28;20443;-91
2021/11/01 00:16:29;;;;;;;8.77;3.23;;;;;;;;;;5052610;28;20478;-90
2021/11/01 00:18:55;;;;;;;12.37;4.27;;;;;;;;;;5038568;28;20406;-91
2021/11/01 00:26:40;;;;;;;16.07;4.37;;;10.80;99.90;;;;;;5030204;22;20457;-91
2021/11/01 00:34:20;;;;;;;10.07;3.37;;;;;;;;;;5059148;26;20473;-89
2021/11/01 00:36:52;;;;;;;7.73;2.77;;;;;;;;;;5143761;22;20504;-90
2021/11/01 00:39:24;;;;;;;11.73;4.00;;;10.80;99.90;;;;;;5084356;23;20491;-89
2021/11/01 00:41:50;;;;;;;10.67;4.70;;;;;;;;;;5018055;28;20412;-90
2021/11/01 00:44:16;;;;;;;16.13;3.80;;;10.30;99.90;;;;;;5018441;28;20404;-90
2021/11/01 00:46:44;;;;;;;13.30;3.13;;;;;;;;;;5019542;28;20420;-90
2021/11/01 00:49:13;;;;;;;12.90;4.23;;;10.60;99.90;;;;;;5036219;28;20232;-90
2021/11/01 00:51:47;;;;;;;6.87;3.17;;;11.10;99.90;;;;;;5019091;28;20435;-89
2021/11/01 00:54:23;;;;;;;12.90;3.23;;;10.50;99.90;;;;;;5077790;23;20485;-89
2021/11/01 00:57:03;;;;;;;7.73;3.70;;;13.50;99.90;;;;;;5348958;22;20584;-91
2021/11/01 00:59:48;;;;;;;4.67;3.23;;;10.50;99.90;;;;;;5058376;28;20417;-90
2021/11/01 01:02:38;;;;;;;4.40;2.43;;;10.50;99.90;;;;;;5076453;28;20410;-91
2021/11/01 01:05:43;;;;;;;9.83;3.10;;;10.40;99.90;;;;;;5058416;28;20433;-91
2021/11/01 01:08:15;;;;;;;8.67;3.57;;;10.30;99.90;;;;;;5045214;28;20429;-90
2021/11/01 01:10:56;;;;;;;6.37;3.50;;;10.30;99.90;;;;;;5057803;28;20422;-90
2021/11/01 01:16:25;;;;;;;8.60;2.97;;;10.30;99.90;;;;;;5514610;22;20495;-91
2021/11/01 01:40:11;;;;;;;;;;;;;;;;;;;;;
2021/11/01 01:45:32;;;;;;;7.43;3.77;;;10.30;99.90;;;;;;5181541;23;20465;-91
2021/11/01 02:26:03;;;;;;;;;;;;;;;;;;;;;
2021/11/01 02:28:39;;;;;;;4.77;2.87;;;10.40;99.90;;;;;;5341027;23;20499;-93
2021/11/01 02:31:22;;;;;;;5.95;2.53;;;;;;;;;;5018959;28;20424;-90
2021/11/01 02:34:04;;;;;;;;;;;;;;;;;;;;;
2021/11/01 02:36:39;;;;;;;4.27;2.27;;;10.30;99.90;;;;;;5003938;28;20193;-91
2021/11/01 02:39:05;;;;;;;3.53;2.03;;;;;;;;;;5002137;28;20439;-92
2021/11/01 02:41:56;;;;;;;4.40;1.70;;;10.40;99.90;;;;;;5018900;28;20425;-92
2021/11/01 02:45:04;;;;;;;4.43;1.57;;;10.40;99.90;;;;;;5009462;28;20519;-89
2021/11/01 02:47:54;;;;;;;7.60;1.90;;;10.40;99.90;;;;;;4991479;28;20424;-93
2021/11/01 03:20:23;;;;;;;6.17;2.10;;;10.20;99.90;;;;;;5038671;28;20232;-91
2021/11/01 03:22:54;;;;;;;2.73;2.17;;;10.20;99.90;;;;;;4984227;28;20427;-91
2021/11/01 03:25:57;;;;;;;7.30;2.23;;;10.20;99.90;;;;;;5004090;28;20428;-92
2021/11/01 03:28:40;;;;;;;2.37;1.47;;;;;;;;;;5005896;28;20442;-92
2021/11/01 03:31:44;;;;;;;1.30;1.20;;;10.20;99.90;;;;;;5017916;28;20420;-92
2021/11/01 03:34:13;;;;;;;7.13;2.30;;;10.20;99.90;;;;;;5004895;28;20578;-90
2021/11/01 03:36:57;;;;;;;7.43;2.30;;;10.20;99.90;;;;;;5021349;28;20149;-91
2021/11/01 03:39:31;;;;;;;4.60;1.90;;;10.10;99.90;;;;;;5037356;28;20404;-91
2021/11/01 03:42:26;;;;;;;3.83;2.10;;;10.10;99.90;;;;;;5031892;28;20435;-91
2021/11/01 03:50:42;;;;;;;10.73;2.80;;;10.10;99.90;;;;;;4266027;26;20477;-90
2021/11/01 03:53:30;;;;;;;3.60;1.77;;;10.10;99.90;;;;;;5002303;28;20201;-91
2021/11/01 03:56:22;;;;;;;2.50;1.80;;;10.00;99.90;;;;;;5018591;28;20433;-89
2021/11/01 03:59:06;;;;;;;3.93;1.40;;;10.00;99.90;;;;;;5016272;28;20412;-92
2021/11/01 04:02:19;;;;;;;;;;;;;;;;;;;;;
2021/11/01 04:04:52;;;;;;;6.03;2.10;;;10.00;99.90;;;;;;5001967;28;20401;-92
2021/11/01 04:10:02;;;;;;;3.05;2.17;;;;;;;;;;5174384;23;20467;-90
2021/11/01 04:12:46;;;;;;;6.70;2.47;;;;;;;;;;5037148;28;20196;-91
2021/11/01 04:18:30;;;;;;;5.27;2.40;;;9.90;99.90;;;;;;5038537;28;20159;-89
2021/11/01 04:21:08;;;;;;;6.17;2.33;;;9.90;99.90;;;;;;5034595;28;20411;-90
2021/11/01 04:23:48;;;;;;;3.73;2.43;;;9.90;99.90;;;;;;5038532;28;20395;-90
2021/11/01 04:29:41;;;;;;;5.20;2.63;;;9.80;99.90;;;;;;5243278;23;20491;-90
2021/11/01 04:32:45;;;;;;;5.97;2.57;;;9.90;99.90;;;;;;5021043;28;20153;-90
2021/11/01 04:35:18;;;;;;;3.57;2.30;;;9.80;99.90;;;;;;5036390;28;20506;-89
2021/11/01 04:37:46;;;;;;;3.85;2.15;;;;;;;;;;5020260;28;20419;-90
2021/11/01 04:58:46;;;;;;;6.63;2.00;;;;;;;;;;5774253;22;20488;-91
2021/11/01 05:01:17;;;;;;;7.67;2.40;;;;;;;;;;5035478;28;20439;-90
2021/11/01 05:07:06;;;;;;;7.00;2.40;;;9.80;99.90;;;;;;5021083;28;20419;-90
2021/11/01 05:09:44;;;;;;;1.60;1.52;;;;;;;;;;5019862;28;20454;-91
2021/11/01 05:12:22;;;;;;;15.30;2.00;;;;;;;;;;5020285;28;20161;-88
2021/11/01 05:15:04;;;;;;;1.90;1.80;;;9.80;99.90;;;;;;5019425;28;20399;-89
2021/11/01 05:17:49;;;;;;;9.80;2.57;;;;;;;;;;5036402;28;20416;-90
2021/11/01 05:20:24;;;;;;;4.77;3.23;;;;;;;;;;5036244;28;20442;-91
2021/11/01 05:31:00;;;;;;;6.30;2.37;;;9.80;99.90;;;;;;4971165;23;20517;-91
2021/11/01 05:33:49;;;;;;;6.97;2.47;;;9.80;99.90;;;;;;5023359;28;20457;-91
2021/11/01 05:36:46;;;;;;;2.85;1.75;;;9.80;99.90;;;;;;5035392;28;20443;-91
2021/11/01 05:49:51;;;;;;;3.10;2.87;;;;;;;;;;4407675;23;20498;-89
2021/11/01 06:07:17;;;;;;;5.03;2.05;;;;;;;;;;5036619;28;20457;-90
2021/11/01 06:15:22;;;;;;;6.93;2.40;;;;;;;;;;5221549;23;20226;-90
2021/11/01 06:17:48;;;;;;;2.47;2.38;;;;;;;;;;5023652;28;20161;-90
2021/11/01 06:20:16;;;;;;;1.70;1.60;;;;;;;;;;5020559;28;20200;-90
2021/11/01 06:22:43;;;;;;;3.10;1.53;;;9.70;99.90;;;;;;5194718;23;20631;-90
2021/11/01 06:43:25;;;;;;;4.93;1.80;;;;;;;;;;5017269;28;20384;-91
2021/11/01 06:51:52;;;;;;;4.97;2.33;;;;;;;;;;5003834;28;20419;-89
2021/11/01 07:16:08;;;;;;;2.13;1.53;;;;;;;;;;4984982;28;20753;-86
2021/11/01 07:18:51;;;;;;;6.70;2.03;;;;;;;;;;4980523;28;20413;-86
2021/11/01 07:24:08;;;;;;;8.93;1.90;;;;;;;;;;4977172;28;20416;-88
2021/11/01 08:43:38;;;;;;;4.33;1.17;;;;;;;;;;4448218;23;20478;-88
2021/11/01 09:03:04;;;;;;;2.33;1.80;;;11.70;99.90;;;;;;4989462;28;20425;-87
2021/11/01 09:21:35;;;;;;;4.27;1.60;;;;;;;;;;4988572;28;20456;-87
2021/11/01 09:26:38;;;;;;;2.33;1.63;;;12.70;99.90;;;;;;4989543;28;20417;-87
2021/11/01 09:43:07;;;;;;;4.00;1.57;;;12.50;99.90;;;;;;4991394;28;20510;-88
2021/11/01 09:45:37;;;;;;;4.57;1.17;;;12.60;99.90;;;;;;4973157;28;20432;-88
2021/11/01 09:48:07;;;;;;;5.50;1.27;;;11.60;99.90;;;;;;4989582;28;20433;-88
2021/11/01 09:50:35;;;;;;;1.53;1.43;;;12.60;99.90;;;;;;4969128;28;20421;-88
2021/11/01 09:53:06;;;;;;;2.27;1.73;;;12.60;99.90;;;;;;4973072;28;20561;-89
2021/11/01 10:01:43;;;;;;;3.33;2.13;;;13.40;98.10;;;;;;4991205;28;20467;-88
2021/11/01 10:04:38;;;;;;;2.97;1.53;;;13.40;98.10;;;;;;4969723;28;20536;-89
2021/11/01 10:10:11;;;;;;;4.27;1.30;;;14.70;95.80;;;;;;4970753;28;20485;-88
2021/11/01 10:12:44;;;;;;;2.43;1.10;;;14.80;99.90;;;;;;4973686;28;20460;-89
2021/11/01 10:18:19;;;;;;;3.83;1.43;;;15.50;91.50;;;;;;4986255;28;20462;-90
2021/11/01 10:21:05;;;;;;;1.40;1.23;;;15.60;99.90;;;;;;4979413;28;20549;-88
2021/11/01 10:23:38;;;;;;;3.33;1.50;;;15.60;90.30;;;;;;4978591;28;20416;-89
2021/11/01 10:26:29;;;;;;;2.30;1.30;;;15.30;90.10;;;;;;4992271;28;20409;-89
2021/11/01 10:29:13;;;;;;;2.83;1.43;;;15.80;88.50;;;;;;4974883;28;20414;-89
2021/11/01 10:31:46;;;;;;;2.07;1.27;;;16.50;82.40;;;;;;4991493;28;20420;-90
2021/11/01 10:34:21;;;;;;;1.90;1.17;;;19.40;89.90;;;;;;4974286;28;20536;-89
2021/11/01 10:36:48;;;;;;;1.25;1.15;;;;;;;;;;4956272;28;20902;-91
2021/11/01 10:39:30;;;;;;;1.90;0.87;;;18.40;65.70;;;;;;4963696;28;20221;-88
2021/11/01 10:45:23;;;;;;;;;;;;;;;;;;;;;
2021/11/01 11:12:08;;;;;;;6.37;1.07;;;18.90;72.00;;;;;;4990445;28;20417;-88
2021/11/01 11:14:50;;;;;;;0.83;0.83;;;19.00;55.10;;;;;;4968240;28;20481;-91
2021/11/01 11:17:27;;;;;;;0.67;0.67;;;18.80;55.70;;;;;;4956977;28;20595;-90
2021/11/01 11:26:06;;;;;;;2.33;0.90;;;17.50;55.80;;;;;;4987575;28;20495;-89
2021/11/01 11:40:07;;;;;;;1.80;0.83;;;19.80;55.50;;;;;;4993708;28;20557;-91
2021/11/01 11:47:39;;;;;;;0.83;0.60;;;19.70;50.10;;;;;;5004148;28;20734;-90
2021/11/01 11:50:15;;;;;;;5.20;1.40;;;19.70;61.90;;;;;;4985844;28;20510;-86
2021/11/01 11:52:47;;;;;;;0.77;0.63;;;;;;;;;;4978191;28;20495;-86
2021/11/01 11:55:18;;;;;;;3.80;1.23;;;18.30;51.30;;;;;;4999371;28;20459;-86
2021/11/01 11:57:54;;;;;;;1.00;1.00;;;17.70;52.30;;;;;;4982059;28;20428;-89
2021/11/01 12:00:20;;;;;;;0.63;0.63;;;;;;;;;;4980067;28;20570;-87
2021/11/01 12:02:54;;;;;;;1.50;1.40;;;18.30;52.70;;;;;;4979994;28;20420;-88
2021/11/01 12:05:33;;;;;;;2.00;0.80;;;19.50;51.00;;;;;;4979138;28;20454;-89
2021/11/01 12:08:34;;;;;;;1.60;1.47;;;17.70;50.10;;;;;;4981439;28;20804;-87
2021/11/01 12:19:28;;;;;;;5.37;0.80;;;;;;;;;;4999277;28;20417;-89
2021/11/01 12:21:59;;;;;;;3.27;0.90;;;17.60;71.60;;;;;;4982821;28;20527;-89
2021/11/01 12:24:31;;;;;;;1.10;0.87;;;18.00;52.50;;;;;;4985249;28;20427;-90
2021/11/01 12:27:09;;;;;;;1.93;0.70;;;17.50;53.70;;;;;;4985619;28;20423;-89
2021/11/01 12:29:39;;;;;;;1.60;0.60;;;16.90;53.90;;;;;;5005157;28;20492;-88
2021/11/01 12:32:12;;;;;;;6.60;2.23;;;18.10;54.80;;;;;;5004072;28;20560;-88
2021/11/01 12:35:37;;;;;;;0.87;0.83;;;18.30;52.20;;;;;;4985017;28;20476;-86
2021/11/01 12:37:47;;;;;;;2.63;0.93;;;18.10;52.10;;;;;;4988723;28;20485;-87
2021/11/01 13:00:40;;;;;;;0.70;0.70;;;17.40;73.80;;;;;;4981884;28;20425;-86
2021/11/01 13:03:47;;;;;;;1.10;1.10;;;18.20;73.40;;;;;;4982820;28;20421;-88
2021/11/01 13:06:25;;;;;;;1.90;1.20;;;;;;;;;;4961870;28;20453;-89
2021/11/01 13:09:01;;;;;;;2.40;0.97;;;18.80;67.70;;;;;;4967670;28;20444;-89
2021/11/01 13:20:26;;;;;;;1.27;1.10;;;16.80;54.00;;;;;;4982332;28;20441;-87
2021/11/01 13:23:00;;;;;;;2.00;0.90;;;17.20;54.80;;;;;;4953293;29;20443;-86
2021/11/01 13:28:50;;;;;;;1.33;0.80;;;18.90;53.40;;;;;;4969238;29;20418;-87
2021/11/01 13:37:43;;;;;;;2.03;1.40;;;17.40;53.50;;;;;;4972222;29;20445;-89
2021/11/01 13:40:17;;;;;;;1.40;1.30;;;17.30;73.70;;;;;;4951641;29;20418;-86
2021/11/01 13:43:25;;;;;;;1.60;1.10;;;16.90;73.80;;;;;;4950010;29;20425;-91
2021/11/01 13:45:59;;;;;;;3.53;0.90;;;17.20;54.90;;;;;;4929830;29;20423;-91
2021/11/01 13:49:07;;;;;;;1.30;0.70;;;18.20;65.80;;;;;;4934664;29;20414;-87
2021/11/01 13:51:59;;;;;;;1.50;1.37;;;19.10;52.40;;;;;;4961316;28;20453;-89
2021/11/01 13:54:49;;;;;;;1.57;1.13;;;19.30;50.70;;;;;;4972703;28;20540;-90
2021/11/01 13:57:24;;;;;;;4.23;1.10;;;18.80;51.20;;;;;;4970979;28;20414;-90
2021/11/01 14:13:02;;;;;;;;;;;;;;;;;;;;;
2021/11/01 15:08:19;;;;;;;4.43;1.00;;;14.40;63.00;;;;;;4989022;28;20413;-88
2021/11/01 15:13:44;;;;;;;4.93;1.40;;;;;;;;;;4988907;28;20461;-89
2021/11/01 15:20:26;;;;;;;;;;;;;;;;;;;;;
2021/11/01 15:34:03;;;;;;;1.50;0.90;;;14.30;65.70;;;;;;4978081;28;20464;-88
2021/11/01 15:37:08;;;;;;;2.20;1.00;;;;;;;;;;4977574;28;20917;-87
2021/11/01 16:16:39;;;;;;;1.57;1.47;;;13.30;98.20;;;;;;4988989;28;20444;-87
2021/11/01 16:19:48;;;;;;;4.90;2.73;;;13.10;83.00;;;;;;4988080;28;20444;-89
2021/11/01 16:25:53;;;;;;;;;;;;;;;;;;;;;
2021/11/01 16:31:59;;;;;;;2.30;2.03;;;12.90;86.50;;;;;;4969298;28;20409;-89
2021/11/01 16:34:17;;;;;;;2.40;1.70;;;13.10;85.90;;;;;;4985574;28;20501;-90
2021/11/01 16:39:50;;;;;;;5.70;1.70;;;12.80;88.70;;;;;;4990865;28;20412;-88
2021/11/01 16:42:42;;;;;;;5.60;1.93;;;12.70;89.10;;;;;;4990744;28;20410;-88
2021/11/01 16:45:24;;;;;;;1.47;1.47;;;12.70;91.00;;;;;;4966246;28;20513;-89
2021/11/01 16:48:00;;;;;;;2.60;1.83;;;12.40;92.10;;;;;;4984579;28;20476;-87
2021/11/01 16:50:33;;;;;;;4.43;1.73;;;12.30;93.40;;;;;;4968229;28;20832;-86
2021/11/01 16:53:12;;;;;;;1.73;1.73;;;15.00;96.60;;;;;;4987176;28;20483;-88
2021/11/01 16:55:53;;;;;;;4.00;1.67;;;14.20;97.60;;;;;;4971284;28;20476;-89
2021/11/01 16:58:25;;;;;;;3.07;2.00;;;;;;;;;;4987456;28;20425;-88
2021/11/01 17:01:11;;;;;;;13.60;8.07;;;12.00;96.20;;;;;;4969577;28;20485;-89
2021/11/01 17:03:48;;;;;;;1.93;1.50;;;11.90;96.20;;;;;;4971063;28;20429;-88
2021/11/01 17:06:56;;;;;;;4.80;1.70;;;11.80;96.00;;;;;;4970715;28;20417;-89
2021/11/01 17:36:51;;;;;;;4.13;2.17;;;11.40;99.90;;;;;;4996477;28;20197;-90
2021/11/01 18:44:26;;;;;;;3.07;1.37;;;11.00;95.90;;;;;;5035128;28;20450;-90
2021/11/01 18:52:18;;;;;;;2.67;1.80;;;;;;;;;;5011425;23;20493;-87
2021/11/01 18:55:00;;;;;;;1.97;1.70;;;11.40;95.90;;;;;;4972565;29;20569;-88
2021/11/01 18:57:28;;;;;;;5.50;1.70;;;11.00;95.50;;;;;;4969991;29;20639;-89
2021/11/01 19:00:09;;;;;;;3.30;1.67;;;11.10;95.00;;;;;;4955247;29;20434;-88
2021/11/01 19:02:45;;;;;;;2.10;2.00;;;11.00;95.50;;;;;;4970946;29;20921;-90
2021/11/01 19:05:30;;;;;;;1.63;1.57;;;11.00;95.20;;;;;;4953986;29;20174;-89
2021/11/01 19:08:14;;;;;;;2.40;1.50;;;;;;;;;;4953212;29;20466;-86
2021/11/01 20:05:46;;;;;;;4.13;3.80;;;10.60;96.80;;;;;;4973446;29;20421;-87
2021/11/01 20:08:47;;;;;;;;;;;;;;;;;;;;;
2021/11/01 20:11:45;;;;;;;1.80;1.80;;;10.60;97.20;;;;;;4966487;29;20419;-88
2021/11/01 21:24:49;;;;;;;1.92;1.83;;;9.90;99.90;;;;;;4924207;29;20290;-89
2021/11/01 21:27:24;;;;;;;1.95;1.80;;;10.00;99.90;;;;;;4937367;29;20183;-89
2021/11/01 21:29:52;;;;;;;5.20;2.20;;;;;;;;;;4939125;29;20183;-90
2021/11/01 21:32:29;;;;;;;2.03;1.90;;;9.90;99.90;;;;;;4923397;29;20463;-90
2021/11/01 21:35:02;;;;;;;1.87;1.77;;;;;;;;;;4941403;29;20534;-89
2021/11/01 21:37:30;;;;;;;3.07;2.70;;;;;;;;;;4939752;29;20451;-90
2021/11/01 21:40:28;;;;;;;1.90;1.77;;;9.80;99.90;;;;;;4938353;29;20396;-90
2021/11/01 21:42:58;;;;;;;2.17;1.92;;;9.90;99.90;;;;;;4920634;29;20498;-90
2021/11/01 21:45:28;;;;;;;2.23;2.00;;;;;;;;;;4904697;29;20187;-90
2021/11/01 21:47:54;;;;;;;5.17;3.57;;;;;;;;;;4940997;29;20419;-88
2021/11/01 21:50:52;;;;;;;2.25;2.15;;;9.90;99.90;;;;;;4924777;29;20438;-90
2021/11/01 21:57:22;;;;;;;2.10;1.73;;;9.80;99.90;;;;;;4977907;29;20174;-89
2021/11/01 22:18:04;;;;;;;;;;;;;;;;;;;;;
2021/11/01 22:57:22;;;;;;;1.85;1.80;;;9.90;99.90;;;;;;4881578;29;20454;-90
2021/11/01 23:01:16;;;;;;;;;;;;;;;;;;;;;
2021/11/01 23:33:13;;;;;;;3.20;2.67;;;;;;;;;;4978615;29;20462;-90
2021/11/01 23:35:39;;;;;;;7.80;3.30;;;;;;;;;;4976502;29;20434;-90
2021/11/01 23:38:17;;;;;;;4.20;2.63;;;9.60;99.90;;;;;;5007632;28;20418;-90
2021/11/01 23:40:43;;;;;;;4.38;2.17;;;;;;;;;;4976820;29;20960;-90
2021/11/01 23:43:13;;;;;;;3.13;2.90;;;;;;;;;;4976303;29;20182;-90
2021/11/01 23:45:50;;;;;;;4.47;3.10;;;11.00;99.90;;;;;;4976063;29;20198;-91
2021/11/01 23:48:19;;;;;;;3.10;2.90;;;9.00;99.90;;;;;;4975506;29;20398;-90
2021/11/01 23:51:16;;;;;;;4.50;3.57;;;9.00;99.90;;;;;;4977825;29;20155;-91
2021/11/01 23:56:54;;;;;;;6.05;2.70;;;8.80;99.90;;;;;;4996486;28;20464;-88
2021/11/01 23:59:21;;;;;;;4.20;3.03;;;;;;;;;;4979880;28;20159;-90
